sensor_id;sensor_type;location;lat;lon;timestamp;pressure;altitude;pressure_sealevel;temperature;humidity
6899;BME280;3488;42.616;23.350;2023-07-20T00:00:37;64338.75;;;22.54;67.25
6899;BME280;3488;42.616;23.350;2023-07-20T00:03:11;64321.47;;;22.35;67.22
6899;BME280;3488;42.616;23.350;2023-07-20T00:05:42;64330.38;;;22.46;67.56
6899;BME280;3488;42.616;23.350;2023-07-20T00:08:10;64325.16;;;22.44;67.79
6899;BME280;3488;42.616;23.350;2023-07-20T00:10:37;64336.13;;;22.52;67.09
6899;BME280;3488;42.616;23.350;2023-07-20T00:13:04;64316.28;;;22.33;69.13
6899;BME280;3488;42.616;23.350;2023-07-20T00:15:33;64308.97;;;22.28;69.85
6899;BME280;3488;42.616;23.350;2023-07-20T00:18:00;64302.66;;;22.17;70.17
6899;BME280;3488;42.616;23.350;2023-07-20T00:20:26;64278.59;;;21.92;71.29
6899;BME280;3488;42.616;23.350;2023-07-20T00:22:53;64278.59;;;21.92;72.64
6899;BME280;3488;42.616;23.350;2023-07-20T00:25:23;64284.38;;;22.00;72.11
6899;BME280;3488;42.616;23.350;2023-07-20T00:27:50;64268.22;;;21.92;70.71
6899;BME280;3488;42.616;23.350;2023-07-20T00:30:17;64279.69;;;21.98;70.39
6899;BME280;3488;42.616;23.350;2023-07-20T00:32:45;64262.44;;;21.84;71.75
6899;BME280;3488;42.616;23.350;2023-07-20T00:35:13;64271.31;;;21.90;72.28
6899;BME280;3488;42.616;23.350;2023-07-20T00:37:40;64283.88;;;22.02;69.66
6899;BME280;3488;42.616;23.350;2023-07-20T00:40:08;64283.88;;;22.04;69.89
6899;BME280;3488;42.616;23.350;2023-07-20T00:42:35;64296.38;;;22.11;69.69
6899;BME280;3488;42.616;23.350;2023-07-20T00:45:03;64276.03;;;21.94;70.05
6899;BME280;3488;42.616;23.350;2023-07-20T00:47:30;64295.91;;;22.16;69.86
6899;BME280;3488;42.616;23.350;2023-07-20T00:49:59;64283.38;;;22.06;71.98
6899;BME280;3488;42.616;23.350;2023-07-20T00:52:27;64295.84;;;22.11;70.50
6899;BME280;3488;42.616;23.350;2023-07-20T00:54:56;64292.22;;;22.10;69.83
6899;BME280;3488;42.616;23.350;2023-07-20T00:57:24;64289.63;;;22.10;67.81
6899;BME280;3488;42.616;23.350;2023-07-20T00:59:51;64289.59;;;22.07;67.46
6899;BME280;3488;42.616;23.350;2023-07-20T01:02:18;64292.75;;;22.13;67.30
6899;BME280;3488;42.616;23.350;2023-07-20T01:04:45;64294.31;;;22.12;66.96
6899;BME280;3488;42.616;23.350;2023-07-20T01:07:20;64296.94;;;22.17;66.91
6899;BME280;3488;42.616;23.350;2023-07-20T01:09:55;64295.34;;;22.13;67.34
6899;BME280;3488;42.616;23.350;2023-07-20T01:12:31;64271.34;;;21.95;70.61
6899;BME280;3488;42.616;23.350;2023-07-20T01:15:00;64262.44;;;21.84;72.70
6899;BME280;3488;42.616;23.350;2023-07-20T01:17:28;64247.81;;;21.69;74.66
6899;BME280;3488;42.616;23.350;2023-07-20T01:19:55;64246.22;;;21.65;76.08
6899;BME280;3488;42.616;23.350;2023-07-20T01:22:48;64225.88;;;21.48;79.93
6899;BME280;3488;42.616;23.350;2023-07-20T01:25:43;64214.38;;;21.37;82.20
6899;BME280;3488;42.616;23.350;2023-07-20T01:31:18;64158.47;;;20.84;88.29
6899;BME280;3488;42.616;23.350;2023-07-20T01:33:48;64165.25;;;20.90;88.14
6899;BME280;3488;42.616;23.350;2023-07-20T01:36:17;64159.53;;;20.85;88.22
6899;BME280;3488;42.616;23.350;2023-07-20T01:38:45;64153.22;;;20.76;87.33
6899;BME280;3488;42.616;23.350;2023-07-20T01:41:13;64155.84;;;20.79;89.81
6899;BME280;3488;42.616;23.350;2023-07-20T01:43:42;64149.06;;;20.72;90.26
6899;BME280;3488;42.616;23.350;2023-07-20T01:46:09;64131.84;;;20.55;90.88
6899;BME280;3488;42.616;23.350;2023-07-20T01:48:38;64127.69;;;20.54;89.79
6899;BME280;3488;42.616;23.350;2023-07-20T01:51:05;64111.53;;;20.43;89.50
6899;BME280;3488;42.616;23.350;2023-07-20T01:53:32;64112.56;;;20.42;90.08
6899;BME280;3488;42.616;23.350;2023-07-20T01:55:59;64121.38;;;20.43;89.85
6899;BME280;3488;42.616;23.350;2023-07-20T01:58:26;64116.72;;;20.43;90.23
6899;BME280;3488;42.616;23.350;2023-07-20T02:00:54;64115.69;;;20.42;90.45
6899;BME280;3488;42.616;23.350;2023-07-20T02:03:20;64115.16;;;20.39;92.27
6899;BME280;3488;42.616;23.350;2023-07-20T02:05:50;64100.06;;;20.32;92.67
6899;BME280;3488;42.616;23.350;2023-07-20T02:08:17;64078.09;;;20.06;93.93
6899;BME280;3488;42.616;23.350;2023-07-20T02:10:45;64078.63;;;20.07;92.26
6899;BME280;3488;42.616;23.350;2023-07-20T02:13:12;64082.25;;;20.08;92.35
6899;BME280;3488;42.616;23.350;2023-07-20T02:15:41;64079.66;;;20.08;92.31
6899;BME280;3488;42.616;23.350;2023-07-20T02:18:08;64086.91;;;20.10;91.74
6899;BME280;3488;42.616;23.350;2023-07-20T02:20:36;64084.88;;;20.10;91.96
6899;BME280;3488;42.616;23.350;2023-07-20T02:23:04;64087.47;;;20.13;90.20
6899;BME280;3488;42.616;23.350;2023-07-20T02:25:31;64093.72;;;20.16;89.07
6899;BME280;3488;42.616;23.350;2023-07-20T02:27:59;64086.50;;;20.19;87.58
6899;BME280;3488;42.616;23.350;2023-07-20T02:30:26;64098.47;;;20.26;87.37
6899;BME280;3488;42.616;23.350;2023-07-20T02:32:53;64100.00;;;20.25;84.60
6899;BME280;3488;42.616;23.350;2023-07-20T02:35:23;64102.13;;;20.29;83.35
6899;BME280;3488;42.616;23.350;2023-07-20T02:37:51;64101.06;;;20.28;84.00
6899;BME280;3488;42.616;23.350;2023-07-20T02:40:20;64108.91;;;20.38;84.25
6899;BME280;3488;42.616;23.350;2023-07-20T02:42:47;64104.72;;;20.32;86.17
6899;BME280;3488;42.616;23.350;2023-07-20T02:45:14;64078.63;;;20.07;86.50
6899;BME280;3488;42.616;23.350;2023-07-20T02:47:42;64107.78;;;20.27;85.54
6899;BME280;3488;42.616;23.350;2023-07-20T02:50:09;64099.00;;;20.29;85.41
6899;BME280;3488;42.616;23.350;2023-07-20T02:52:39;64096.91;;;20.27;86.26
6899;BME280;3488;42.616;23.350;2023-07-20T02:55:07;64102.63;;;20.30;85.73
6899;BME280;3488;42.616;23.350;2023-07-20T02:57:36;64105.22;;;20.30;84.64
6899;BME280;3488;42.616;23.350;2023-07-20T03:00:04;64072.41;;;20.06;83.40
6899;BME280;3488;42.616;23.350;2023-07-20T03:02:32;64098.97;;;20.24;85.04
6899;BME280;3488;42.616;23.350;2023-07-20T03:05:00;64089.56;;;20.15;86.04
6899;BME280;3488;42.616;23.350;2023-07-20T03:07:31;64084.88;;;20.13;85.34
6899;BME280;3488;42.616;23.350;2023-07-20T03:09:59;64084.34;;;20.10;85.68
6899;BME280;3488;42.616;23.350;2023-07-20T03:12:25;64080.69;;;20.09;86.48
6899;BME280;3488;42.616;23.350;2023-07-20T03:14:55;64077.56;;;20.06;84.61
6899;BME280;3488;42.616;23.350;2023-07-20T03:17:22;64078.63;;;20.07;81.83
6899;BME280;3488;42.616;23.350;2023-07-20T03:19:49;64088.00;;;20.13;80.93
6899;BME280;3488;42.616;23.350;2023-07-20T03:22:16;64091.59;;;20.14;81.24
6899;BME280;3488;42.616;23.350;2023-07-20T03:24:44;64090.09;;;20.18;79.78
6899;BME280;3488;42.616;23.350;2023-07-20T03:27:11;64090.09;;;20.18;78.90
6899;BME280;3488;42.616;23.350;2023-07-20T03:29:39;64097.94;;;20.25;79.17
6899;BME280;3488;42.616;23.350;2023-07-20T03:32:08;64100.03;;;20.27;80.66
6899;BME280;3488;42.616;23.350;2023-07-20T03:34:36;64114.63;;;20.39;80.78
6899;BME280;3488;42.616;23.350;2023-07-20T03:37:04;64116.72;;;20.41;81.61
6899;BME280;3488;42.616;23.350;2023-07-20T03:39:32;64118.81;;;20.45;82.30
6899;BME280;3488;42.616;23.350;2023-07-20T03:41:59;64109.44;;;20.39;82.91
6899;BME280;3488;42.616;23.350;2023-07-20T03:44:26;64123.00;;;20.49;82.52
6899;BME280;3488;42.616;23.350;2023-07-20T03:46:53;64132.91;;;20.59;81.47
6899;BME280;3488;42.616;23.350;2023-07-20T03:49:21;64135.00;;;20.61;81.92
6899;BME280;3488;42.616;23.350;2023-07-20T03:51:48;64141.78;;;20.67;81.56
6899;BME280;3488;42.616;23.350;2023-07-20T03:54:15;64151.72;;;20.80;79.17
6899;BME280;3488;42.616;23.350;2023-07-20T03:56:42;64159.03;;;20.87;79.43
6899;BME280;3488;42.616;23.350;2023-07-20T03:59:09;64168.91;;;20.91;79.21
6899;BME280;3488;42.616;23.350;2023-07-20T04:01:36;64181.47;;;21.03;79.54
6899;BME280;3488;42.616;23.350;2023-07-20T04:04:06;64188.25;;;21.12;81.67
6899;BME280;3488;42.616;23.350;2023-07-20T04:06:35;64194.03;;;21.23;82.30
6899;BME280;3488;42.616;23.350;2023-07-20T04:09:03;64214.38;;;21.37;83.18
6899;BME280;3488;42.616;23.350;2023-07-20T04:11:31;64211.78;;;21.37;83.92
6899;BME280;3488;42.616;23.350;2023-07-20T04:13:59;64220.63;;;21.43;84.43
6899;BME280;3488;42.616;23.350;2023-07-20T04:16:26;64220.13;;;21.43;86.00
6899;BME280;3488;42.616;23.350;2023-07-20T04:18:55;64232.63;;;21.50;85.75
6899;BME280;3488;42.616;23.350;2023-07-20T04:21:22;64236.31;;;21.58;83.71
6899;BME280;3488;42.616;23.350;2023-07-20T04:23:50;64249.91;;;21.71;86.28
6899;BME280;3488;42.616;23.350;2023-07-20T04:26:17;64251.47;;;21.73;86.67
6899;BME280;3488;42.616;23.350;2023-07-20T04:28:44;64264.00;;;21.85;87.69
6899;BME280;3488;42.616;23.350;2023-07-20T04:31:13;64260.34;;;21.79;89.98
6899;BME280;3488;42.616;23.350;2023-07-20T04:33:41;64233.75;;;21.63;91.10
6899;BME280;3488;42.616;23.350;2023-07-20T04:36:08;64232.13;;;21.54;92.10
6899;BME280;3488;42.616;23.350;2023-07-20T04:38:35;64234.22;;;21.56;92.82
6899;BME280;3488;42.616;23.350;2023-07-20T04:41:05;64241.00;;;21.60;94.51
6899;BME280;3488;42.616;23.350;2023-07-20T04:43:32;64221.69;;;21.44;92.77
6899;BME280;3488;42.616;23.350;2023-07-20T04:45:59;64250.91;;;21.70;91.80
6899;BME280;3488;42.616;23.350;2023-07-20T04:48:26;64254.59;;;21.76;92.76
6899;BME280;3488;42.616;23.350;2023-07-20T04:50:53;64250.41;;;21.72;93.93
6899;BME280;3488;42.616;23.350;2023-07-20T04:53:21;64276.53;;;21.95;92.02
6899;BME280;3488;42.616;23.350;2023-07-20T04:55:49;64288.59;;;22.09;91.56
6899;BME280;3488;42.616;23.350;2023-07-20T04:58:19;64283.88;;;22.04;90.04
6899;BME280;3488;42.616;23.350;2023-07-20T05:00:47;64290.13;;;22.08;90.19
6899;BME280;3488;42.616;23.350;2023-07-20T05:03:14;64300.06;;;22.20;88.88
6899;BME280;3488;42.616;23.350;2023-07-20T05:05:42;64288.59;;;22.09;90.19
6899;BME280;3488;42.616;23.350;2023-07-20T05:08:09;64310.56;;;22.32;88.24
6899;BME280;3488;42.616;23.350;2023-07-20T05:10:36;64349.19;;;22.62;85.37
6899;BME280;3488;42.616;23.350;2023-07-20T05:13:03;64355.50;;;22.73;83.33
6899;BME280;3488;42.616;23.350;2023-07-20T05:18:01;64401.00;;;23.14;78.58
6899;BME280;3488;42.616;23.350;2023-07-20T05:20:28;64430.81;;;23.43;77.33
6899;BME280;3488;42.616;23.350;2023-07-20T05:22:57;64393.19;;;23.14;76.91
6899;BME280;3488;42.616;23.350;2023-07-20T05:25:24;64388.47;;;23.07;80.70
6899;BME280;3488;42.616;23.350;2023-07-20T05:27:51;64398.41;;;23.17;77.79
6899;BME280;3488;42.616;23.350;2023-07-20T05:30:21;64403.59;;;23.17;78.37
6899;BME280;3488;42.616;23.350;2023-07-20T05:32:49;64392.59;;;23.06;77.73
6899;BME280;3488;42.616;23.350;2023-07-20T05:35:17;64383.22;;;23.00;78.17
6899;BME280;3488;42.616;23.350;2023-07-20T05:37:45;64373.28;;;22.90;79.03
6899;BME280;3488;42.616;23.350;2023-07-20T05:40:13;64392.63;;;23.09;77.38
6899;BME280;3488;42.616;23.350;2023-07-20T05:42:44;64399.41;;;23.13;75.35
6899;BME280;3488;42.616;23.350;2023-07-20T05:45:11;64384.25;;;23.01;75.24
6899;BME280;3488;42.616;23.350;2023-07-20T05:47:39;64402.56;;;23.18;73.40
6899;BME280;3488;42.616;23.350;2023-07-20T05:50:08;64414.06;;;23.27;71.87
6899;BME280;3488;42.616;23.350;2023-07-20T05:52:35;64418.78;;;23.31;72.75
6899;BME280;3488;42.616;23.350;2023-07-20T05:55:03;64426.16;;;23.43;73.58
6899;BME280;3488;42.616;23.350;2023-07-20T05:57:30;64441.28;;;23.53;73.33
6899;BME280;3488;42.616;23.350;2023-07-20T05:59:57;64452.28;;;23.68;71.47
6899;BME280;3488;42.616;23.350;2023-07-20T06:02:24;64477.41;;;23.90;71.48
6899;BME280;3488;42.616;23.350;2023-07-20T06:04:51;64489.47;;;24.02;70.89
6899;BME280;3488;42.616;23.350;2023-07-20T06:07:19;64511.94;;;24.21;68.23
6899;BME280;3488;42.616;23.350;2023-07-20T06:09:46;64523.97;;;24.30;66.63
6899;BME280;3488;42.616;23.350;2023-07-20T06:12:13;64507.78;;;24.19;64.36
6899;BME280;3488;42.616;23.350;2023-07-20T06:14:40;64519.28;;;24.28;62.76
6899;BME280;3488;42.616;23.350;2023-07-20T06:17:07;64540.22;;;24.48;63.04
6899;BME280;3488;42.616;23.350;2023-07-20T06:19:35;64528.69;;;24.37;63.32
6899;BME280;3488;42.616;23.350;2023-07-20T06:22:02;64529.25;;;24.40;62.43
6899;BME280;3488;42.616;23.350;2023-07-20T06:24:31;64549.66;;;24.62;62.53
6899;BME280;3488;42.616;23.350;2023-07-20T06:26:58;64554.34;;;24.61;62.26
6899;BME280;3488;42.616;23.350;2023-07-20T06:29:25;64557.50;;;24.67;64.02
6899;BME280;3488;42.616;23.350;2023-07-20T06:31:53;64583.69;;;24.92;63.63
6899;BME280;3488;42.616;23.350;2023-07-20T06:34:19;64610.94;;;25.18;59.68
6899;BME280;3488;42.616;23.350;2023-07-20T06:36:46;64611.50;;;25.21;60.02
6899;BME280;3488;42.616;23.350;2023-07-20T06:39:13;64610.44;;;25.18;58.51
6899;BME280;3488;42.616;23.350;2023-07-20T06:41:43;64617.22;;;25.27;58.58
6899;BME280;3488;42.616;23.350;2023-07-20T06:44:10;64602.03;;;25.09;59.71
6899;BME280;3488;42.616;23.350;2023-07-20T06:46:37;64619.81;;;25.22;59.21
6899;BME280;3488;42.616;23.350;2023-07-20T06:49:06;64610.94;;;25.18;59.09
6899;BME280;3488;42.616;23.350;2023-07-20T06:51:35;64645.53;;;25.51;58.09
6899;BME280;3488;42.616;23.350;2023-07-20T06:54:02;64637.16;;;25.46;59.56
6899;BME280;3488;42.616;23.350;2023-07-20T06:56:30;64653.91;;;25.59;58.84
6899;BME280;3488;42.616;23.350;2023-07-20T06:58:58;64680.63;;;25.80;60.09
6899;BME280;3488;42.616;23.350;2023-07-20T07:01:28;64717.34;;;26.17;59.83
6899;BME280;3488;42.616;23.350;2023-07-20T07:03:55;64737.28;;;26.39;57.66
6899;BME280;3488;42.616;23.350;2023-07-20T07:06:22;64771.88;;;26.70;55.78
6899;BME280;3488;42.616;23.350;2023-07-20T07:08:49;64744.59;;;26.46;57.57
6899;BME280;3488;42.616;23.350;2023-07-20T07:11:16;64732.03;;;26.34;56.42
6899;BME280;3488;42.616;23.350;2023-07-20T07:13:43;64726.81;;;26.32;56.24
6899;BME280;3488;42.616;23.350;2023-07-20T07:16:13;64695.31;;;25.99;55.95
6899;BME280;3488;42.616;23.350;2023-07-20T07:18:43;64682.22;;;25.86;56.70
6899;BME280;3488;42.616;23.350;2023-07-20T07:21:10;64660.22;;;25.70;57.44
6899;BME280;3488;42.616;23.350;2023-07-20T07:23:38;64656.53;;;25.59;58.47
6899;BME280;3488;42.616;23.350;2023-07-20T07:26:08;64668.06;;;25.75;57.54
6899;BME280;3488;42.616;23.350;2023-07-20T07:28:43;64667.00;;;25.67;58.92
6899;BME280;3488;42.616;23.350;2023-07-20T07:31:11;64665.97;;;25.71;59.15
6899;BME280;3488;42.616;23.350;2023-07-20T07:33:39;64686.41;;;25.90;59.21
6899;BME280;3488;42.616;23.350;2023-07-20T07:36:06;64721.53;;;26.19;57.96
6899;BME280;3488;42.616;23.350;2023-07-20T07:38:33;64721.50;;;26.16;57.87
6899;BME280;3488;42.616;23.350;2023-07-20T07:41:00;64691.63;;;25.93;58.13
6899;BME280;3488;42.616;23.350;2023-07-20T07:43:27;64698.97;;;26.00;58.63
6899;BME280;3488;42.616;23.350;2023-07-20T07:45:54;64714.22;;;26.19;59.08
6899;BME280;3488;42.616;23.350;2023-07-20T07:48:22;64719.44;;;26.22;59.13
6899;BME280;3488;42.616;23.350;2023-07-20T07:50:53;64728.34;;;26.31;58.26
6899;BME280;3488;42.616;23.350;2023-07-20T07:53:20;64685.34;;;25.87;57.59
6899;BME280;3488;42.616;23.350;2023-07-20T07:55:47;64686.41;;;25.90;58.62
6899;BME280;3488;42.616;23.350;2023-07-20T07:58:14;64713.16;;;26.18;57.33
6899;BME280;3488;42.616;23.350;2023-07-20T08:00:41;64738.34;;;26.40;58.58
6899;BME280;3488;42.616;23.350;2023-07-20T08:03:09;64753.53;;;26.55;58.01
6899;BME280;3488;42.616;23.350;2023-07-20T08:05:36;64778.72;;;26.79;60.28
6899;BME280;3488;42.616;23.350;2023-07-20T08:08:05;64803.88;;;27.00;58.25
6899;BME280;3488;42.616;23.350;2023-07-20T08:10:32;64781.31;;;26.76;58.06
6899;BME280;3488;42.616;23.350;2023-07-20T08:13:00;64769.81;;;26.68;59.36
6899;BME280;3488;42.616;23.350;2023-07-20T08:15:27;64747.25;;;26.51;59.55
6899;BME280;3488;42.616;23.350;2023-07-20T08:17:55;64745.66;;;26.45;59.72
6899;BME280;3488;42.616;23.350;2023-07-20T08:20:22;64721.00;;;26.23;60.54
6899;BME280;3488;42.616;23.350;2023-07-20T08:22:54;64767.69;;;26.66;60.02
6899;BME280;3488;42.616;23.350;2023-07-20T08:25:23;64811.22;;;27.02;59.34
6899;BME280;3488;42.616;23.350;2023-07-20T08:27:51;64815.41;;;27.11;60.67
6899;BME280;3488;42.616;23.350;2023-07-20T08:30:21;64820.16;;;27.18;59.99
6899;BME280;3488;42.616;23.350;2023-07-20T08:32:49;64772.44;;;26.73;62.38
6899;BME280;3488;42.616;23.350;2023-07-20T08:35:16;64701.13;;;26.07;62.60
6899;BME280;3488;42.616;23.350;2023-07-20T08:37:44;64695.31;;;26.01;60.52
6899;BME280;3488;42.616;23.350;2023-07-20T08:40:12;64648.16;;;25.54;58.12
6899;BME280;3488;42.616;23.350;2023-07-20T08:42:42;64621.94;;;25.29;59.67
6899;BME280;3488;42.616;23.350;2023-07-20T08:45:12;64632.97;;;25.39;58.13
6899;BME280;3488;42.616;23.350;2023-07-20T08:47:41;64651.81;;;25.55;58.08
6899;BME280;3488;42.616;23.350;2023-07-20T08:50:09;64629.78;;;25.34;58.92
6899;BME280;3488;42.616;23.350;2023-07-20T08:52:39;64641.34;;;25.47;58.70
6899;BME280;3488;42.616;23.350;2023-07-20T08:55:07;64694.28;;;25.95;58.09
6899;BME280;3488;42.616;23.350;2023-07-20T08:57:36;64654.97;;;25.60;55.82
6899;BME280;3488;42.616;23.350;2023-07-20T09:00:06;64691.09;;;25.92;56.77
6899;BME280;3488;42.616;23.350;2023-07-20T09:02:38;64717.91;;;26.23;56.29
6899;BME280;3488;42.616;23.350;2023-07-20T09:05:07;64673.31;;;25.78;54.92
6899;BME280;3488;42.616;23.350;2023-07-20T09:07:35;64707.41;;;26.10;55.19
6899;BME280;3488;42.616;23.350;2023-07-20T09:10:03;64694.28;;;26.00;54.85
6899;BME280;3488;42.616;23.350;2023-07-20T09:12:31;64687.44;;;25.86;55.02
6899;BME280;3488;42.616;23.350;2023-07-20T09:14:59;64672.75;;;25.75;55.42
6899;BME280;3488;42.616;23.350;2023-07-20T09:17:28;64698.47;;;26.02;53.99
6899;BME280;3488;42.616;23.350;2023-07-20T09:19:55;64740.41;;;26.40;53.64
6899;BME280;3488;42.616;23.350;2023-07-20T09:22:29;64754.56;;;26.53;52.46
6899;BME280;3488;42.616;23.350;2023-07-20T09:24:57;64725.72;;;26.26;52.26
6899;BME280;3488;42.616;23.350;2023-07-20T09:27:34;64714.22;;;26.19;53.02
6899;BME280;3488;42.616;23.350;2023-07-20T09:30:04;64718.91;;;26.19;53.10
6899;BME280;3488;42.616;23.350;2023-07-20T09:32:39;64729.41;;;26.29;51.27
6899;BME280;3488;42.616;23.350;2023-07-20T09:35:13;64764.00;;;26.62;50.08
6899;BME280;3488;42.616;23.350;2023-07-20T09:37:46;64780.81;;;26.81;50.12
6899;BME280;3488;42.616;23.350;2023-07-20T09:40:17;64765.06;;;26.66;50.41
6899;BME280;3488;42.616;23.350;2023-07-20T09:42:45;64762.97;;;26.64;48.93
6899;BME280;3488;42.616;23.350;2023-07-20T09:45:12;64803.34;;;27.00;49.17
6899;BME280;3488;42.616;23.350;2023-07-20T09:47:42;64777.66;;;26.78;49.67
6899;BME280;3488;42.616;23.350;2023-07-20T09:50:09;64800.22;;;26.99;50.19
6899;BME280;3488;42.616;23.350;2023-07-20T09:52:38;64803.34;;;26.97;49.24
6899;BME280;3488;42.616;23.350;2023-07-20T09:55:07;64843.25;;;27.43;48.31
6899;BME280;3488;42.616;23.350;2023-07-20T09:57:37;64879.97;;;27.76;47.36
6899;BME280;3488;42.616;23.350;2023-07-20T10:00:05;64917.78;;;28.12;46.90
6899;BME280;3488;42.616;23.350;2023-07-20T10:02:45;64932.47;;;28.23;45.99
6899;BME280;3488;42.616;23.350;2023-07-20T10:05:16;64953.47;;;28.41;45.11
6899;BME280;3488;42.616;23.350;2023-07-20T10:07:45;64945.59;;;28.36;45.86
6899;BME280;3488;42.616;23.350;2023-07-20T10:10:14;64898.84;;;27.89;46.16
6899;BME280;3488;42.616;23.350;2023-07-20T10:12:43;64876.84;;;27.75;47.00
6899;BME280;3488;42.616;23.350;2023-07-20T10:15:18;64889.44;;;27.85;46.15
6899;BME280;3488;42.616;23.350;2023-07-20T10:18:02;64919.38;;;28.11;45.81
6899;BME280;3488;42.616;23.350;2023-07-20T10:20:40;64951.38;;;28.39;45.06
6899;BME280;3488;42.616;23.350;2023-07-20T10:23:08;64929.84;;;28.23;44.05
6899;BME280;3488;42.616;23.350;2023-07-20T10:25:36;64956.63;;;28.47;43.43
6899;BME280;3488;42.616;23.350;2023-07-20T10:28:06;64905.72;;;28.00;44.17
6899;BME280;3488;42.616;23.350;2023-07-20T10:30:34;64897.84;;;27.93;44.55
6899;BME280;3488;42.616;23.350;2023-07-20T10:33:04;64932.50;;;28.26;44.69
6899;BME280;3488;42.616;23.350;2023-07-20T10:35:51;64954.53;;;28.44;43.53
6899;BME280;3488;42.616;23.350;2023-07-20T10:38:18;64955.06;;;28.48;43.56
6899;BME280;3488;42.616;23.350;2023-07-20T10:40:54;65016.53;;;29.04;42.94
6899;BME280;3488;42.616;23.350;2023-07-20T10:43:21;65011.81;;;29.04;43.76
6899;BME280;3488;42.616;23.350;2023-07-20T10:45:51;65052.78;;;29.41;42.78
6899;BME280;3488;42.616;23.350;2023-07-20T10:48:20;65082.78;;;29.70;42.35
6899;BME280;3488;42.616;23.350;2023-07-20T10:51:11;65034.94;;;29.26;43.42
6899;BME280;3488;42.616;23.350;2023-07-20T10:53:40;65030.22;;;29.22;43.25
6899;BME280;3488;42.616;23.350;2023-07-20T10:56:08;65081.69;;;29.66;44.19
6899;BME280;3488;42.616;23.350;2023-07-20T10:58:39;65113.25;;;29.99;42.42
6899;BME280;3488;42.616;23.350;2023-07-20T11:01:07;65110.09;;;29.96;41.78
6899;BME280;3488;42.616;23.350;2023-07-20T11:03:37;65116.94;;;30.02;42.57
6899;BME280;3488;42.616;23.350;2023-07-20T11:06:33;65151.13;;;30.30;45.44
6899;BME280;3488;42.616;23.350;2023-07-20T11:09:06;65159.00;;;30.40;44.94
6899;BME280;3488;42.616;23.350;2023-07-20T11:11:37;65176.88;;;30.57;42.31
6899;BME280;3488;42.616;23.350;2023-07-20T11:14:07;65174.25;;;30.57;40.53
6899;BME280;3488;42.616;23.350;2023-07-20T11:16:35;65194.78;;;30.77;40.16
6899;BME280;3488;42.616;23.350;2023-07-20T11:19:05;65175.31;;;30.53;40.41
6899;BME280;3488;42.616;23.350;2023-07-20T11:21:37;65217.94;;;30.94;39.75
6899;BME280;3488;42.616;23.350;2023-07-20T11:24:06;65277.94;;;31.56;39.71
6899;BME280;3488;42.616;23.350;2023-07-20T11:26:45;65308.97;;;31.88;41.51
6899;BME280;3488;42.616;23.350;2023-07-20T11:29:12;65300.56;;;31.80;39.58
6899;BME280;3488;42.616;23.350;2023-07-20T11:31:41;65323.72;;;32.02;39.63
6899;BME280;3488;42.616;23.350;2023-07-20T11:34:12;65341.63;;;32.14;39.32
6899;BME280;3488;42.616;23.350;2023-07-20T11:36:41;65339.00;;;32.12;38.17
6899;BME280;3488;42.616;23.350;2023-07-20T11:39:12;65307.38;;;31.79;38.71
6899;BME280;3488;42.616;23.350;2023-07-20T11:41:46;65305.31;;;31.77;38.43
6899;BME280;3488;42.616;23.350;2023-07-20T11:44:14;65264.78;;;31.46;39.49
6899;BME280;3488;42.616;23.350;2023-07-20T11:46:43;65275.31;;;31.51;39.68
6899;BME280;3488;42.616;23.350;2023-07-20T11:49:13;65292.13;;;31.64;41.11
6899;BME280;3488;42.616;23.350;2023-07-20T11:51:40;65286.34;;;31.64;38.27
6899;BME280;3488;42.616;23.350;2023-07-20T11:54:08;65279.50;;;31.55;39.88
6899;BME280;3488;42.616;23.350;2023-07-20T11:56:36;65302.13;;;31.82;41.88
6899;BME280;3488;42.616;23.350;2023-07-20T11:59:02;65329.00;;;32.05;40.26
6899;BME280;3488;42.616;23.350;2023-07-20T12:01:30;65330.03;;;32.03;39.76
6899;BME280;3488;42.616;23.350;2023-07-20T12:04:00;65341.63;;;32.17;42.11
6899;BME280;3488;42.616;23.350;2023-07-20T12:06:31;65386.41;;;32.54;38.53
6899;BME280;3488;42.616;23.350;2023-07-20T12:08:58;65407.97;;;32.77;35.25
6899;BME280;3488;42.616;23.350;2023-07-20T12:11:32;65324.25;;;31.95;35.54
6899;BME280;3488;42.616;23.350;2023-07-20T12:13:59;65242.13;;;31.22;35.28
6899;BME280;3488;42.616;23.350;2023-07-20T12:16:27;65248.97;;;31.26;36.01
6899;BME280;3488;42.616;23.350;2023-07-20T12:18:59;65207.41;;;30.89;35.32
6899;BME280;3488;42.616;23.350;2023-07-20T12:21:27;65214.25;;;30.98;35.97
6899;BME280;3488;42.616;23.350;2023-07-20T12:23:56;65238.44;;;31.16;34.82
6899;BME280;3488;42.616;23.350;2023-07-20T12:26:23;65260.56;;;31.34;34.86
6899;BME280;3488;42.616;23.350;2023-07-20T12:28:51;65264.75;;;31.41;33.41
6899;BME280;3488;42.616;23.350;2023-07-20T12:31:18;65294.22;;;31.74;33.62
6899;BME280;3488;42.616;23.350;2023-07-20T12:33:47;65300.56;;;31.73;33.40
6899;BME280;3488;42.616;23.350;2023-07-20T12:36:15;65318.47;;;31.92;32.08
6899;BME280;3488;42.616;23.350;2023-07-20T12:38:42;65349.00;;;32.26;31.92
6899;BME280;3488;42.616;23.350;2023-07-20T12:41:12;65320.56;;;31.97;32.79
6899;BME280;3488;42.616;23.350;2023-07-20T12:43:39;65302.13;;;31.77;32.49
6899;BME280;3488;42.616;23.350;2023-07-20T12:46:07;65299.50;;;31.74;33.26
6899;BME280;3488;42.616;23.350;2023-07-20T12:48:35;65333.19;;;32.09;31.68
6899;BME280;3488;42.616;23.350;2023-07-20T12:51:03;65380.09;;;32.46;32.00
6899;BME280;3488;42.616;23.350;2023-07-20T12:53:31;65343.72;;;32.14;31.74
6899;BME280;3488;42.616;23.350;2023-07-20T12:55:59;65343.22;;;32.18;31.79
6899;BME280;3488;42.616;23.350;2023-07-20T12:58:28;65391.69;;;32.59;30.79
6899;BME280;3488;42.616;23.350;2023-07-20T13:00:55;65374.28;;;32.50;31.30
6899;BME280;3488;42.616;23.350;2023-07-20T13:03:24;65412.19;;;32.82;31.53
6899;BME280;3488;42.616;23.350;2023-07-20T13:05:51;65450.66;;;33.21;30.50
6899;BME280;3488;42.616;23.350;2023-07-20T13:08:18;65382.69;;;32.61;30.90
6899;BME280;3488;42.616;23.350;2023-07-20T13:10:45;65364.78;;;32.36;31.36
6899;BME280;3488;42.616;23.350;2023-07-20T13:13:12;65384.28;;;32.57;30.35
6899;BME280;3488;42.616;23.350;2023-07-20T13:15:44;65446.97;;;33.17;30.40
6899;BME280;3488;42.616;23.350;2023-07-20T13:18:13;65473.31;;;33.40;29.94
6899;BME280;3488;42.616;23.350;2023-07-20T13:20:40;65487.06;;;33.53;29.60
6899;BME280;3488;42.616;23.350;2023-07-20T13:23:07;65444.34;;;33.12;30.37